createdAt,value
2018-12-07T05:46:32.797Z,9.40
2018-12-07T05:49:01.480Z,9.40
2018-12-07T05:51:29.996Z,9.40
2018-12-07T05:53:58.575Z,9.40
2018-12-07T05:56:26.993Z,9.30
2018-12-07T05:58:55.529Z,9.30
2018-12-07T06:01:24.298Z,9.30
2018-12-07T06:03:52.693Z,9.30
2018-12-07T06:06:21.521Z,9.20
2018-12-07T06:08:49.948Z,9.20
2018-12-07T06:11:18.373Z,9.30
2018-12-07T06:13:47.061Z,9.30
2018-12-07T06:16:16.042Z,9.30
2018-12-07T06:18:44.462Z,9.30
2018-12-07T06:21:12.832Z,9.30
2018-12-07T06:23:41.221Z,9.40
2018-12-07T06:26:09.865Z,9.40
2018-12-07T06:28:39.173Z,9.40
2018-12-07T06:31:07.856Z,9.50
2018-12-07T06:33:36.857Z,9.50
2018-12-07T06:36:05.843Z,9.60
2018-12-07T06:38:34.582Z,9.60
2018-12-07T06:41:04.110Z,9.60
2018-12-07T06:43:33.145Z,9.60
2018-12-07T06:46:02.081Z,9.60
2018-12-07T06:48:30.866Z,9.60
2018-12-07T06:50:59.499Z,9.70
2018-12-07T06:53:28.446Z,9.70
2018-12-07T06:55:57.104Z,9.70
2018-12-07T06:58:25.938Z,9.70
2018-12-07T07:00:54.926Z,9.70
2018-12-07T07:03:23.599Z,9.70
2018-12-07T07:05:52.661Z,9.70
2018-12-07T07:08:21.035Z,9.70
2018-12-07T07:10:49.900Z,9.80
2018-12-07T07:13:18.397Z,9.80
2018-12-07T07:15:47.271Z,9.90
2018-12-07T07:18:15.693Z,9.90
2018-12-07T07:20:44.364Z,10.00
2018-12-07T07:23:13.327Z,10.00
2018-12-07T07:25:42.298Z,10.10
2018-12-07T07:28:10.881Z,10.10
2018-12-07T07:30:39.714Z,10.20
2018-12-07T07:33:08.122Z,10.30
2018-12-07T07:35:37.107Z,10.30
2018-12-07T07:38:05.802Z,10.30
2018-12-07T07:40:34.441Z,10.30
2018-12-07T07:43:03.099Z,10.30
2018-12-07T07:45:32.262Z,10.40
2018-12-07T07:48:00.815Z,10.40
2018-12-07T07:50:29.250Z,10.40
2018-12-07T07:52:57.642Z,10.50
2018-12-07T07:55:26.289Z,10.50
2018-12-07T07:57:55.210Z,10.50
2018-12-07T08:00:23.664Z,10.50
2018-12-07T08:02:52.070Z,10.50
2018-12-07T08:05:20.513Z,10.50
2018-12-07T08:07:48.895Z,10.60
2018-12-07T08:10:17.495Z,10.70
2018-12-07T08:12:45.914Z,10.70
2018-12-07T08:15:14.314Z,10.70
2018-12-07T08:17:43.241Z,10.70
2018-12-07T08:20:12.257Z,10.70
2018-12-07T08:22:41.638Z,10.70
2018-12-07T08:25:10.456Z,10.90
2018-12-07T08:27:39.157Z,10.90
2018-12-07T08:30:10.720Z,10.90
2018-12-07T08:32:39.586Z,11.00
2018-12-07T08:35:08.415Z,11.00
2018-12-07T08:37:37.011Z,11.10
2018-12-07T08:40:07.613Z,11.10
2018-12-07T08:42:36.043Z,11.10
2018-12-07T08:45:06.489Z,11.10
2018-12-07T08:47:35.460Z,11.20
2018-12-07T08:50:05.631Z,11.20
2018-12-07T08:52:34.159Z,11.20
2018-12-07T08:55:03.128Z,11.20
2018-12-07T08:57:32.021Z,11.30
2018-12-07T09:00:00.443Z,11.30
2018-12-07T09:02:29.371Z,11.30
2018-12-07T09:04:58.344Z,11.40
2018-12-07T09:07:27.031Z,11.50
2018-12-07T09:09:56.344Z,11.60
2018-12-07T09:12:24.933Z,11.70
2018-12-07T09:14:53.455Z,11.80
2018-12-07T09:17:21.926Z,11.90
2018-12-07T09:19:50.359Z,11.90
2018-12-07T09:22:19.587Z,11.90
2018-12-07T09:24:48.479Z,11.90
2018-12-07T09:27:16.854Z,12.00
2018-12-07T09:29:45.564Z,12.20
2018-12-07T09:32:14.146Z,12.50
2018-12-07T09:34:42.881Z,12.60
2018-12-07T09:37:12.034Z,12.90
2018-12-07T09:39:40.640Z,13.10
2018-12-07T09:42:09.592Z,13.10
2018-12-07T09:44:38.037Z,13.30
2018-12-07T09:47:06.608Z,13.40
2018-12-07T09:49:35.057Z,13.40
2018-12-07T09:52:03.442Z,13.30
2018-12-07T09:54:32.578Z,13.20
2018-12-07T09:57:01.036Z,13.10
2018-12-07T09:59:29.947Z,13.00
2018-12-07T10:01:58.740Z,13.10
2018-12-07T10:04:27.407Z,13.20
2018-12-07T10:06:56.145Z,13.50
2018-12-07T10:09:24.792Z,13.60
2018-12-07T10:11:53.226Z,13.70
2018-12-07T10:14:22.534Z,13.70
2018-12-07T10:16:50.924Z,13.60
2018-12-07T10:19:19.545Z,13.50
2018-12-07T10:21:48.859Z,13.40
2018-12-07T10:24:17.498Z,13.30
2018-12-07T10:26:45.932Z,13.20
2018-12-07T10:29:14.623Z,13.20
2018-12-07T10:31:43.593Z,13.30
2018-12-07T10:34:12.283Z,13.20
2018-12-07T10:36:40.973Z,13.10
2018-12-07T10:39:09.404Z,13.00
2018-12-07T10:41:38.048Z,12.90
2018-12-07T10:44:06.697Z,12.90
2018-12-07T10:46:35.753Z,13.00
2018-12-07T10:49:04.231Z,13.00
2018-12-07T10:51:33.069Z,12.90
2018-12-07T10:54:01.622Z,12.80
2018-12-07T10:56:30.243Z,12.80
2018-12-07T10:58:58.611Z,12.80
2018-12-07T11:01:32.791Z,12.80
2018-12-07T11:04:06.633Z,12.80
2018-12-07T11:06:40.588Z,13.00
2018-12-07T11:09:15.433Z,13.00
2018-12-07T11:11:49.096Z,13.00
2018-12-07T11:14:21.833Z,13.00
2018-12-07T11:16:55.707Z,12.90
2018-12-07T11:19:29.575Z,13.00
2018-12-07T11:22:03.724Z,12.90
2018-12-07T11:24:37.503Z,12.90
2018-12-07T11:27:11.139Z,13.10
2018-12-07T11:29:45.273Z,13.20
2018-12-07T11:32:18.707Z,13.30
2018-12-07T11:34:52.035Z,13.30
2018-12-07T11:37:21.354Z,13.30
2018-12-07T11:39:50.263Z,13.30
2018-12-07T11:42:19.007Z,13.30
2018-12-07T11:44:47.718Z,13.40
2018-12-07T11:47:17.153Z,13.30
2018-12-07T11:49:45.528Z,13.30
2018-12-07T11:52:14.025Z,13.40
2018-12-07T11:54:42.699Z,13.40
2018-12-07T11:57:11.097Z,13.50
2018-12-07T11:59:39.568Z,13.50
2018-12-07T12:02:08.279Z,13.80
2018-12-07T12:04:37.178Z,14.00
2018-12-07T12:07:05.856Z,13.90
2018-12-07T12:09:34.465Z,13.90
2018-12-07T12:12:02.880Z,13.90
2018-12-07T12:14:31.844Z,13.90
2018-12-07T12:17:00.601Z,14.00
2018-12-07T12:19:29.235Z,14.00
2018-12-07T12:21:57.623Z,13.90
2018-12-07T12:24:26.672Z,13.90
2018-12-07T12:26:55.328Z,13.90
2018-12-07T12:29:23.752Z,14.00
2018-12-07T12:31:52.226Z,14.00
2018-12-07T13:07:57.457Z,13.90
2018-12-07T13:10:25.868Z,13.80
2018-12-07T13:12:54.469Z,13.80
2018-12-07T13:15:22.859Z,13.70
2018-12-07T13:17:51.402Z,13.70
2018-12-07T13:20:19.810Z,13.50
2018-12-07T13:22:48.340Z,13.40
2018-12-07T13:25:16.727Z,13.30
2018-12-07T13:27:45.886Z,13.30
2018-12-07T13:30:14.509Z,13.40
2018-12-07T13:32:42.962Z,13.40
2018-12-07T13:35:11.574Z,13.40
2018-12-07T13:37:39.992Z,13.40
2018-12-07T13:40:09.020Z,13.40
2018-12-07T13:42:38.197Z,13.50
2018-12-07T13:45:08.968Z,13.60
2018-12-07T13:47:37.640Z,13.60
2018-12-07T13:50:40.841Z,13.50
2018-12-07T13:53:09.463Z,13.50
2018-12-07T13:55:39.281Z,13.50
2018-12-07T13:58:07.933Z,13.50
2018-12-07T14:00:36.798Z,13.60
2018-12-07T14:03:05.944Z,13.60
2018-12-07T14:05:34.858Z,13.70
2018-12-07T14:08:03.874Z,13.80
2018-12-07T14:10:33.062Z,13.90
2018-12-07T14:13:01.946Z,13.80
2018-12-07T14:15:30.889Z,13.90
2018-12-07T14:17:59.946Z,13.90
2018-12-07T14:20:29.095Z,13.90
2018-12-07T14:22:58.989Z,13.90
2018-12-07T14:25:28.668Z,13.80
2018-12-07T14:27:59.083Z,13.80
2018-12-07T14:30:27.814Z,13.70
2018-12-07T14:32:56.868Z,13.60
2018-12-07T14:35:25.730Z,13.60
2018-12-07T14:37:54.273Z,13.50
2018-12-07T14:40:23.517Z,13.30
2018-12-07T14:42:52.553Z,13.20
2018-12-07T14:45:21.802Z,12.90
2018-12-07T14:47:50.592Z,12.80
2018-12-07T14:50:19.346Z,12.60
2018-12-07T14:52:48.067Z,12.50
2018-12-07T14:55:17.100Z,12.40
2018-12-07T14:57:45.742Z,12.20
2018-12-07T15:00:15.118Z,12.10
2018-12-07T15:02:44.467Z,12.00
2018-12-07T15:05:12.961Z,11.90
2018-12-07T15:07:41.852Z,11.80
2018-12-07T15:10:11.748Z,11.80
2018-12-07T15:12:40.549Z,11.70
2018-12-07T15:15:10.163Z,11.70
2018-12-07T15:17:38.963Z,11.70
2018-12-07T15:20:09.065Z,11.70
2018-12-07T15:22:37.931Z,11.70
2018-12-07T15:25:07.468Z,11.60
2018-12-07T15:27:36.321Z,11.70
2018-12-07T15:30:06.786Z,11.60
2018-12-07T15:32:35.210Z,11.60
2018-12-07T15:35:05.434Z,11.60
2018-12-07T15:37:34.331Z,11.50
2018-12-07T15:40:04.194Z,11.60
2018-12-07T15:42:33.075Z,11.50
2018-12-07T15:45:02.546Z,11.50
2018-12-07T15:47:31.686Z,11.50
2018-12-07T15:50:00.368Z,11.40
2018-12-07T15:52:29.533Z,11.40
2018-12-07T15:54:58.553Z,11.40
2018-12-07T15:57:27.257Z,11.40
2018-12-07T15:59:56.253Z,11.40
2018-12-07T16:02:25.061Z,11.30
2018-12-07T16:04:54.854Z,11.30
2018-12-07T16:07:24.492Z,11.30
2018-12-07T16:09:53.471Z,11.20
2018-12-07T16:12:22.690Z,11.20
2018-12-07T16:14:51.615Z,11.20
2018-12-07T16:17:20.195Z,11.20
2018-12-07T16:19:49.154Z,11.20
2018-12-07T16:22:19.108Z,11.10
2018-12-07T16:24:48.029Z,11.10
2018-12-07T16:27:16.505Z,11.00
2018-12-07T16:29:46.284Z,10.90
2018-12-07T16:32:15.354Z,10.90
2018-12-07T16:34:45.369Z,10.90
2018-12-07T16:37:14.569Z,10.90
2018-12-07T16:39:43.464Z,10.80
2018-12-07T16:42:12.438Z,10.80
2018-12-07T16:44:41.571Z,10.70
2018-12-07T16:47:10.224Z,10.60
2018-12-07T16:49:39.222Z,10.50
2018-12-07T16:52:07.928Z,10.40
2018-12-07T16:54:38.056Z,10.30
2018-12-07T16:57:07.348Z,10.20
2018-12-07T16:59:36.100Z,10.10
2018-12-07T17:02:05.878Z,9.90
2018-12-07T17:04:34.371Z,9.80
2018-12-07T17:07:03.401Z,9.70
2018-12-07T17:09:33.143Z,9.70
2018-12-07T17:12:01.694Z,9.60
2018-12-07T17:14:30.423Z,9.50
2018-12-07T17:16:59.536Z,9.40
2018-12-07T17:19:28.504Z,9.30
2018-12-07T17:21:57.215Z,9.30
2018-12-07T17:24:27.341Z,9.20
2018-12-07T17:26:56.943Z,9.10
2018-12-07T17:29:26.284Z,9.10
2018-12-07T17:31:55.692Z,9.00
2018-12-07T17:34:24.522Z,9.00
2018-12-07T17:36:53.901Z,8.90
2018-12-07T17:39:22.347Z,8.80
2018-12-07T17:41:50.822Z,8.80
2018-12-07T17:44:20.193Z,8.70
2018-12-07T17:46:49.183Z,8.60
2018-12-07T17:49:18.354Z,8.60
2018-12-07T17:51:47.259Z,8.50
2018-12-07T17:54:15.999Z,8.40
2018-12-07T17:56:44.691Z,8.40
2018-12-07T17:59:13.783Z,8.40
2018-12-07T18:01:42.437Z,8.40
2018-12-07T18:04:10.863Z,8.30
2018-12-07T18:06:39.499Z,8.20
2018-12-07T18:09:10.204Z,8.10
2018-12-07T18:11:39.189Z,8.00
2018-12-07T18:14:07.968Z,8.00
2018-12-07T18:16:36.571Z,7.90
2018-12-07T18:19:05.702Z,7.90
2018-12-07T18:21:35.065Z,7.90
2018-12-07T18:24:03.913Z,7.90
2018-12-07T18:26:33.156Z,8.00
2018-12-07T18:29:02.847Z,8.00
2018-12-07T18:31:31.483Z,8.20
2018-12-07T18:34:00.017Z,8.20
2018-12-07T18:36:29.697Z,8.30
2018-12-07T18:38:59.429Z,8.30
2018-12-07T18:41:28.442Z,8.40
2018-12-07T18:43:58.133Z,8.40
2018-12-07T18:46:27.107Z,8.40
2018-12-07T18:48:56.337Z,8.50
2018-12-07T18:51:25.120Z,8.50
2018-12-07T18:53:54.637Z,8.40
2018-12-07T18:56:23.662Z,8.40
2018-12-07T18:58:52.443Z,8.50
2018-12-07T19:01:22.132Z,8.50
2018-12-07T19:03:51.422Z,8.50
2018-12-07T19:06:21.034Z,8.50
2018-12-07T19:08:50.349Z,8.50
2018-12-07T19:11:19.135Z,8.60
2018-12-07T19:13:47.998Z,8.60
2018-12-07T19:16:16.430Z,8.60
2018-12-07T19:18:45.697Z,8.70
2018-12-07T19:21:14.161Z,8.70
2018-12-07T19:23:44.146Z,8.70
2018-12-07T19:26:13.209Z,8.60
2018-12-07T19:28:42.081Z,8.60
2018-12-07T19:31:11.852Z,8.60
2018-12-07T19:33:40.725Z,8.60
2018-12-07T19:36:09.906Z,8.60
2018-12-07T19:38:39.480Z,8.60
2018-12-07T19:41:08.380Z,8.60
2018-12-07T19:43:37.157Z,8.60
2018-12-07T19:46:06.537Z,8.50
2018-12-07T19:48:35.735Z,8.50
2018-12-07T19:51:07.183Z,8.60
2018-12-07T19:53:35.953Z,8.60
2018-12-07T19:56:05.359Z,8.60
2018-12-07T19:58:34.258Z,8.50
2018-12-07T20:01:03.319Z,8.50
2018-12-07T20:03:31.989Z,8.60
2018-12-07T20:06:00.883Z,8.60
2018-12-07T20:08:29.409Z,8.50
2018-12-07T20:10:58.778Z,8.50
2018-12-07T20:13:27.588Z,8.50
2018-12-07T20:15:56.393Z,8.50
2018-12-07T20:18:25.228Z,8.50
2018-12-07T20:20:54.084Z,8.50
2018-12-07T20:23:23.632Z,8.60
2018-12-07T20:25:52.215Z,8.60
2018-12-07T20:28:21.351Z,8.60
2018-12-07T20:30:50.494Z,8.60
2018-12-07T20:33:19.221Z,8.60
2018-12-07T20:35:48.013Z,8.70
2018-12-07T20:38:16.862Z,8.70
2018-12-07T20:40:45.470Z,8.70
2018-12-07T20:43:14.715Z,8.70
2018-12-07T20:45:44.136Z,8.80
2018-12-07T20:48:13.379Z,8.80
2018-12-07T20:50:42.476Z,8.80
2018-12-07T20:53:11.778Z,8.80
2018-12-07T20:55:41.109Z,8.80
2018-12-07T20:58:10.301Z,8.80
2018-12-07T21:00:39.377Z,8.90
2018-12-07T21:03:08.429Z,8.80
2018-12-07T21:07:58.427Z,8.80
2018-12-07T21:10:59.260Z,8.90
2018-12-07T21:13:43.352Z,8.90
2018-12-07T21:16:55.510Z,8.80
2018-12-07T21:19:24.018Z,8.90
2018-12-07T21:21:52.741Z,9.00
2018-12-07T21:24:21.527Z,9.00
2018-12-07T21:26:50.586Z,9.00
2018-12-07T21:29:19.312Z,9.00
2018-12-07T21:31:48.244Z,9.00
2018-12-07T21:36:39.057Z,9.00
2018-12-07T21:39:17.902Z,9.10
2018-12-07T21:41:46.643Z,9.10
2018-12-07T21:44:15.804Z,9.10
2018-12-07T21:46:44.734Z,9.20
2018-12-07T21:49:13.107Z,9.20
2018-12-07T21:52:52.927Z,9.20
2018-12-07T21:55:21.783Z,9.30
2018-12-07T21:57:51.533Z,9.30
2018-12-07T22:00:20.349Z,9.40
2018-12-07T22:02:48.853Z,9.50
2018-12-07T22:05:17.907Z,9.50
2018-12-07T22:07:47.193Z,9.50
2018-12-07T22:10:16.812Z,9.50
2018-12-07T22:12:46.214Z,9.60
2018-12-07T22:15:15.671Z,9.60
2018-12-07T22:17:44.470Z,9.60
2018-12-07T22:20:13.550Z,9.60
2018-12-07T22:22:42.761Z,9.70
2018-12-07T22:25:12.347Z,9.70
2018-12-07T22:27:41.845Z,9.70
2018-12-07T22:30:11.153Z,9.70
